createdAt,value
2023-04-10T00:02:15.770Z,4.66
2023-04-10T00:04:44.065Z,4.65
2023-04-10T00:07:12.185Z,4.67
2023-04-10T00:09:40.167Z,4.69
2023-04-10T00:12:08.003Z,4.70
2023-04-10T00:14:35.946Z,4.73
2023-04-10T00:17:03.895Z,4.76
2023-04-10T00:19:31.780Z,4.80
2023-04-10T00:22:00.108Z,4.82
2023-04-10T00:24:28.055Z,4.82
2023-04-10T00:26:57.604Z,4.80
2023-04-10T00:29:25.748Z,4.78
2023-04-10T00:31:53.822Z,4.78
2023-04-10T00:34:21.931Z,4.74
2023-04-10T00:36:49.899Z,4.71
2023-04-10T00:39:17.833Z,4.66
2023-04-10T00:41:46.034Z,4.61
2023-04-10T00:44:13.914Z,4.54
2023-04-10T00:46:41.848Z,4.48
2023-04-10T00:49:10.942Z,4.42
2023-04-10T00:51:39.001Z,4.38
2023-04-10T00:54:10.362Z,4.34
2023-04-10T00:56:38.278Z,4.32
2023-04-10T00:59:07.292Z,4.29
2023-04-10T01:01:35.740Z,4.29
2023-04-10T01:04:04.225Z,4.26
2023-04-10T01:07:00.559Z,4.23
2023-04-10T01:09:40.762Z,4.22
2023-04-10T01:12:29.579Z,4.21
2023-04-10T01:15:17.334Z,4.20
2023-04-10T01:17:57.285Z,4.17
2023-04-10T01:20:30.206Z,4.13
2023-04-10T01:23:21.985Z,4.08
2023-04-10T01:26:06.575Z,4.02
2023-04-10T01:28:55.581Z,3.97
2023-04-10T01:31:51.017Z,3.90
2023-04-10T01:34:24.316Z,3.86
2023-04-10T01:37:02.861Z,3.83
2023-04-10T01:39:36.444Z,3.79
2023-04-10T01:42:06.976Z,3.77
2023-04-10T01:44:43.115Z,3.75
2023-04-10T01:47:15.732Z,3.73
2023-04-10T01:49:46.932Z,3.72
2023-04-10T01:52:16.730Z,3.72
2023-04-10T01:54:50.603Z,3.72
2023-04-10T01:57:25.316Z,3.71
2023-04-10T01:59:59.032Z,3.71
2023-04-10T02:02:32.165Z,3.69
2023-04-10T02:05:01.319Z,3.67
2023-04-10T02:07:46.424Z,3.63
2023-04-10T02:10:50.832Z,3.60
2023-04-10T02:13:22.288Z,3.52
2023-04-10T02:15:52.836Z,3.46
2023-04-10T02:18:23.022Z,3.41
2023-04-10T02:20:52.845Z,3.36
2023-04-10T02:23:21.263Z,3.29
2023-04-10T02:25:49.475Z,3.24
2023-04-10T02:28:17.563Z,3.21
2023-04-10T02:30:45.679Z,3.18
2023-04-10T02:33:14.012Z,3.17
2023-04-10T02:35:42.507Z,3.15
2023-04-10T02:38:10.468Z,3.14
2023-04-10T02:40:38.807Z,3.14
2023-04-10T02:43:14.143Z,3.15
2023-04-10T02:45:42.684Z,3.15
2023-04-10T02:48:12.811Z,3.16
2023-04-10T02:50:46.372Z,3.17
2023-04-10T02:53:16.763Z,3.17
2023-04-10T02:55:44.716Z,3.15
2023-04-10T02:58:14.862Z,3.12
2023-04-10T03:00:48.816Z,3.08
2023-04-10T03:03:21.760Z,3.03
2023-04-10T03:05:54.012Z,2.97
2023-04-10T03:08:27.127Z,2.91
2023-04-10T03:10:55.059Z,2.84
2023-04-10T03:13:23.746Z,2.79
2023-04-10T03:15:51.841Z,2.75
2023-04-10T03:18:20.114Z,2.70
2023-04-10T03:20:49.696Z,2.66
2023-04-10T03:23:20.760Z,2.65
2023-04-10T03:25:54.934Z,2.63
2023-04-10T03:28:25.680Z,2.64
2023-04-10T03:30:53.719Z,2.64
2023-04-10T03:33:21.955Z,2.66
2023-04-10T03:35:50.275Z,2.67
2023-04-10T03:38:18.317Z,2.70
2023-04-10T03:40:46.346Z,2.71
2023-04-10T03:43:14.313Z,2.69
2023-04-10T03:45:42.730Z,2.69
2023-04-10T03:48:10.879Z,2.66
2023-04-10T03:50:42.620Z,2.62
2023-04-10T03:53:10.660Z,2.58
2023-04-10T03:55:38.748Z,2.55
2023-04-10T03:58:06.776Z,2.52
2023-04-10T04:00:35.904Z,2.48
2023-04-10T04:03:19.019Z,2.47
2023-04-10T04:06:07.577Z,2.46
2023-04-10T04:08:36.534Z,2.47
2023-04-10T04:11:24.678Z,2.52
2023-04-10T04:14:15.468Z,2.56
2023-04-10T04:16:54.961Z,2.61
2023-04-10T04:19:36.455Z,2.67
2023-04-10T04:22:11.006Z,2.74
2023-04-10T04:25:12.011Z,2.84
2023-04-10T04:28:01.569Z,2.95
2023-04-10T04:30:35.519Z,3.04
2023-04-10T04:33:26.008Z,3.10
2023-04-10T04:36:03.826Z,3.17
2023-04-10T04:38:37.648Z,3.26
2023-04-10T04:41:24.397Z,3.33
2023-04-10T04:44:10.504Z,3.38
2023-04-10T04:46:58.710Z,3.42
2023-04-10T04:49:29.478Z,3.46
2023-04-10T04:52:27.651Z,3.50
2023-04-10T04:55:18.590Z,3.55
2023-04-10T04:58:00.844Z,3.59
2023-04-10T05:00:55.320Z,3.67
2023-04-10T05:03:42.007Z,3.76
2023-04-10T05:06:32.911Z,3.87
2023-04-10T05:09:18.974Z,3.99
2023-04-10T05:12:07.179Z,4.13
2023-04-10T05:14:53.802Z,4.28
2023-04-10T05:17:53.926Z,4.56
2023-04-10T05:20:42.144Z,5.33
2023-04-10T05:23:37.799Z,6.14
2023-04-10T05:26:19.653Z,6.68
2023-04-10T05:29:00.432Z,6.90
2023-04-10T05:31:39.616Z,7.11
2023-04-10T05:34:20.691Z,7.41
2023-04-10T05:37:21.140Z,7.81
2023-04-10T05:40:01.339Z,8.27
2023-04-10T05:42:35.025Z,8.83
2023-04-10T05:45:25.735Z,9.60
2023-04-10T05:48:12.381Z,10.43
2023-04-10T05:51:17.264Z,11.19
2023-04-10T05:54:07.835Z,11.82
2023-04-10T05:57:02.121Z,12.29
2023-04-10T05:59:45.287Z,12.73
2023-04-10T06:02:25.255Z,13.04
2023-04-10T06:04:53.958Z,13.39
2023-04-10T06:07:22.460Z,13.77
2023-04-10T06:09:50.569Z,14.03
2023-04-10T06:12:18.571Z,13.98
2023-04-10T06:14:48.012Z,13.91
2023-04-10T06:17:21.838Z,13.92
2023-04-10T06:19:49.903Z,13.69
2023-04-10T06:22:19.800Z,13.74
2023-04-10T06:24:47.739Z,13.02
2023-04-10T06:27:16.567Z,12.68
2023-04-10T06:29:46.162Z,12.87
2023-04-10T06:32:16.787Z,13.05
2023-04-10T06:34:46.646Z,13.24
2023-04-10T06:37:14.814Z,12.85
2023-04-10T06:39:42.943Z,12.42
2023-04-10T06:42:11.196Z,12.34
2023-04-10T06:44:46.175Z,12.56
2023-04-10T06:47:17.048Z,12.87
2023-04-10T06:49:45.137Z,13.43
2023-04-10T06:52:13.213Z,14.13
2023-04-10T06:54:41.515Z,14.67
2023-04-10T06:57:09.890Z,15.24
2023-04-10T06:59:37.914Z,15.73
2023-04-10T07:02:06.290Z,15.99
2023-04-10T07:04:34.308Z,15.97
2023-04-10T07:07:02.544Z,16.06
2023-04-10T07:09:30.881Z,16.03
2023-04-10T07:11:58.953Z,16.37
2023-04-10T07:14:26.953Z,16.64
2023-04-10T07:16:54.964Z,16.84
2023-04-10T07:19:23.028Z,16.91
2023-04-10T07:21:51.272Z,16.77
2023-04-10T07:24:19.644Z,16.70
2023-04-10T07:26:47.754Z,15.66
2023-04-10T07:29:16.092Z,15.87
2023-04-10T07:31:44.545Z,16.00
2023-04-10T07:34:12.880Z,15.52
2023-04-10T07:36:40.974Z,15.73
2023-04-10T07:39:09.068Z,16.21
2023-04-10T07:41:37.065Z,16.62
2023-04-10T07:44:05.882Z,16.89
2023-04-10T07:46:34.014Z,16.82
2023-04-10T07:49:02.552Z,16.17
2023-04-10T07:51:31.070Z,16.14
2023-04-10T07:53:59.264Z,16.44
2023-04-10T07:56:27.484Z,16.83
2023-04-10T07:58:55.791Z,17.17
2023-04-10T08:01:24.597Z,17.23
2023-04-10T08:03:59.044Z,16.06
2023-04-10T08:06:28.037Z,15.68
2023-04-10T08:08:56.337Z,15.06
2023-04-10T08:11:30.310Z,14.47
2023-04-10T08:14:03.229Z,13.75
2023-04-10T08:16:33.333Z,13.22
2023-04-10T08:19:02.856Z,13.29
2023-04-10T08:21:34.335Z,13.36
2023-04-10T08:24:04.030Z,13.38
2023-04-10T08:26:32.452Z,13.42
2023-04-10T08:29:01.046Z,13.51
2023-04-10T08:31:30.134Z,13.65
2023-04-10T08:33:59.164Z,13.24
2023-04-10T08:36:28.361Z,13.20
2023-04-10T08:38:56.542Z,12.97
2023-04-10T08:41:24.721Z,12.86
2023-04-10T08:43:53.312Z,12.81
2023-04-10T08:46:24.714Z,12.72
2023-04-10T08:49:06.155Z,12.73
2023-04-10T08:51:49.732Z,12.77
2023-04-10T08:54:26.853Z,12.87
2023-04-10T08:56:56.996Z,12.76
2023-04-10T08:59:25.443Z,12.78
2023-04-10T09:01:54.168Z,12.80
2023-04-10T09:04:24.749Z,12.88
2023-04-10T09:06:53.565Z,12.86
2023-04-10T09:09:21.730Z,12.92
2023-04-10T09:11:53.084Z,12.73
2023-04-10T09:14:25.690Z,12.71
2023-04-10T09:16:55.345Z,12.71
2023-04-10T09:19:34.475Z,12.87
2023-04-10T09:22:02.686Z,12.99
2023-04-10T09:24:31.105Z,13.16
2023-04-10T09:26:59.155Z,13.37
2023-04-10T09:29:38.221Z,13.47
2023-04-10T09:32:06.487Z,13.68
2023-04-10T09:34:34.612Z,13.62
2023-04-10T09:37:02.688Z,13.58
2023-04-10T09:39:38.851Z,13.62
2023-04-10T09:42:07.269Z,13.67
2023-04-10T09:44:37.876Z,13.84
2023-04-10T09:47:15.016Z,13.76
2023-04-10T09:49:52.669Z,14.04
2023-04-10T09:52:32.475Z,14.05
2023-04-10T09:55:05.446Z,13.69
2023-04-10T09:57:35.594Z,13.16
2023-04-10T10:00:07.109Z,12.98
2023-04-10T10:02:42.484Z,12.81
2023-04-10T10:05:11.725Z,12.91
2023-04-10T10:07:40.318Z,12.99
2023-04-10T10:10:11.790Z,13.16
2023-04-10T10:12:55.140Z,13.41
2023-04-10T10:15:49.618Z,13.52
2023-04-10T10:18:44.232Z,13.68
2023-04-10T10:21:14.541Z,13.96
2023-04-10T10:23:45.472Z,14.10
2023-04-10T10:26:15.498Z,14.13
2023-04-10T10:28:47.142Z,14.33
2023-04-10T10:31:20.305Z,14.41
2023-04-10T10:33:52.543Z,14.15
2023-04-10T10:36:21.979Z,14.24
2023-04-10T10:39:24.733Z,14.17
2023-04-10T10:42:20.752Z,13.98
2023-04-10T10:45:08.640Z,13.78
2023-04-10T10:47:44.933Z,13.58
2023-04-10T10:50:13.424Z,13.66
2023-04-10T10:52:43.785Z,13.69
2023-04-10T10:55:40.139Z,13.75
2023-04-10T10:58:12.257Z,13.48
2023-04-10T11:00:52.948Z,13.66
2023-04-10T11:03:21.076Z,13.69
2023-04-10T11:05:58.727Z,13.88
2023-04-10T11:08:33.369Z,14.15
2023-04-10T11:11:07.920Z,14.26
2023-04-10T11:13:56.483Z,14.17
2023-04-10T11:16:32.107Z,14.07
2023-04-10T11:19:12.983Z,14.07
2023-04-10T11:22:02.611Z,13.93
2023-04-10T11:25:00.491Z,13.88
2023-04-10T11:27:49.442Z,13.93
2023-04-10T11:30:32.276Z,13.75
2023-04-10T11:33:02.107Z,13.36
2023-04-10T11:35:32.079Z,13.54
2023-04-10T11:38:11.779Z,13.60
2023-04-10T11:41:04.511Z,13.64
2023-04-10T11:43:35.109Z,13.52
2023-04-10T11:46:06.586Z,13.43
2023-04-10T11:48:37.045Z,13.30
2023-04-10T11:51:10.956Z,13.35
2023-04-10T11:53:40.550Z,13.41
2023-04-10T11:56:17.261Z,13.56
2023-04-10T11:58:45.552Z,13.65
2023-04-10T12:01:15.317Z,13.52
2023-04-10T12:03:44.669Z,13.52
2023-04-10T12:06:14.926Z,13.51
2023-04-10T12:08:49.513Z,13.34
2023-04-10T12:11:20.704Z,13.37
2023-04-10T12:13:53.670Z,13.53
2023-04-10T12:16:22.405Z,13.58
2023-04-10T12:18:50.925Z,13.62
2023-04-10T12:21:19.573Z,13.54
2023-04-10T12:23:47.954Z,13.57
2023-04-10T12:26:18.927Z,13.67
2023-04-10T12:28:55.576Z,13.71
2023-04-10T12:31:31.916Z,13.87
2023-04-10T12:34:02.470Z,14.02
2023-04-10T12:36:32.304Z,14.01
2023-04-10T12:39:02.377Z,14.11
2023-04-10T12:41:33.137Z,13.96
2023-04-10T12:44:10.647Z,13.81
2023-04-10T12:46:40.572Z,14.02
2023-04-10T12:49:14.208Z,14.12
2023-04-10T12:51:48.962Z,13.89
2023-04-10T12:54:34.372Z,13.84
2023-04-10T12:57:04.458Z,13.78
2023-04-10T12:59:34.331Z,13.55
2023-04-10T13:02:02.752Z,13.69
2023-04-10T13:04:32.973Z,13.85
2023-04-10T13:07:01.271Z,13.99
2023-04-10T13:09:30.858Z,14.07
2023-04-10T13:11:59.109Z,14.11
2023-04-10T13:14:28.372Z,14.17
2023-04-10T13:16:56.633Z,14.14
2023-04-10T13:19:24.926Z,14.08
2023-04-10T13:21:53.305Z,14.03
2023-04-10T13:24:21.957Z,14.21
2023-04-10T13:26:50.220Z,14.37
2023-04-10T13:29:18.601Z,14.40
2023-04-10T13:31:46.876Z,14.30
2023-04-10T13:34:15.083Z,14.07
2023-04-10T13:36:43.517Z,13.98
2023-04-10T13:39:11.928Z,14.01
2023-04-10T13:41:40.348Z,13.99
2023-04-10T13:44:08.634Z,13.90
2023-04-10T13:46:37.037Z,13.99
2023-04-10T13:49:05.415Z,14.14
2023-04-10T13:51:33.544Z,14.24
2023-04-10T13:54:04.899Z,14.37
2023-04-10T13:56:33.321Z,14.48
2023-04-10T13:59:01.629Z,14.58
2023-04-10T14:01:29.748Z,14.61
2023-04-10T14:03:58.139Z,14.51
2023-04-10T14:06:27.493Z,14.12
2023-04-10T14:08:56.225Z,14.21
2023-04-10T14:11:24.657Z,14.24
2023-04-10T14:13:53.198Z,14.16
2023-04-10T14:16:21.477Z,14.26
2023-04-10T14:18:49.688Z,14.28
2023-04-10T14:21:20.022Z,14.28
2023-04-10T14:23:49.086Z,14.24
2023-04-10T14:26:17.514Z,14.14
2023-04-10T14:28:45.746Z,14.06
2023-04-10T14:31:14.051Z,14.00
2023-04-10T14:33:42.229Z,14.09
2023-04-10T14:36:10.616Z,14.22
2023-04-10T14:38:40.209Z,14.27
2023-04-10T14:41:08.652Z,14.32
2023-04-10T14:43:39.538Z,14.11
2023-04-10T14:46:07.554Z,13.94
2023-04-10T14:48:36.140Z,13.90
2023-04-10T14:51:10.542Z,13.92
2023-04-10T14:53:40.090Z,13.88
2023-04-10T14:56:15.651Z,13.75
2023-04-10T14:58:43.966Z,13.64
2023-04-10T15:01:13.649Z,13.55
2023-04-10T15:03:42.427Z,13.56
2023-04-10T15:06:10.733Z,13.62
2023-04-10T15:08:38.870Z,13.59
2023-04-10T15:11:07.422Z,13.61
2023-04-10T15:13:37.827Z,13.59
2023-04-10T15:16:08.220Z,13.58
2023-04-10T15:18:36.608Z,13.51
2023-04-10T15:21:05.203Z,13.49
2023-04-10T15:23:35.170Z,13.45
2023-04-10T15:26:04.335Z,13.46
2023-04-10T15:28:32.978Z,13.51
2023-04-10T15:31:01.453Z,13.48
2023-04-10T15:33:29.758Z,13.42
2023-04-10T15:35:57.869Z,13.47
2023-04-10T15:38:29.032Z,13.35
2023-04-10T15:40:57.621Z,13.21
2023-04-10T15:43:25.774Z,13.19
2023-04-10T15:45:53.831Z,13.24
2023-04-10T15:48:22.835Z,13.29
2023-04-10T15:50:51.154Z,13.23
2023-04-10T15:53:19.223Z,13.16
2023-04-10T15:55:47.830Z,13.03
2023-04-10T15:58:16.271Z,12.94
2023-04-10T16:00:44.497Z,12.92
2023-04-10T16:03:12.761Z,12.85
2023-04-10T16:05:41.706Z,12.79
2023-04-10T16:08:10.391Z,12.74
2023-04-10T16:10:39.744Z,12.71
2023-04-10T16:13:08.931Z,12.68
2023-04-10T16:15:39.615Z,12.63
2023-04-10T16:18:08.320Z,12.57
2023-04-10T16:20:36.830Z,12.59
2023-04-10T16:23:05.076Z,12.58
2023-04-10T16:25:33.212Z,12.58
2023-04-10T16:28:02.409Z,12.51
2023-04-10T16:30:31.328Z,12.45
2023-04-10T16:32:59.876Z,12.35
2023-04-10T16:35:28.062Z,12.30
2023-04-10T16:37:56.349Z,12.27
2023-04-10T16:40:28.186Z,12.20
2023-04-10T16:42:56.432Z,12.13
2023-04-10T16:45:24.730Z,12.05
2023-04-10T16:47:53.313Z,11.96
2023-04-10T16:50:21.345Z,11.88
2023-04-10T16:52:50.264Z,11.81
2023-04-10T16:55:18.455Z,11.76
2023-04-10T16:57:46.792Z,11.69
2023-04-10T17:00:16.689Z,11.63
2023-04-10T17:02:45.198Z,11.59
2023-04-10T17:05:13.837Z,11.54
2023-04-10T17:07:43.871Z,11.50
2023-04-10T17:10:13.310Z,11.42
2023-04-10T17:12:43.189Z,11.35
2023-04-10T17:15:12.588Z,11.24
2023-04-10T17:17:41.113Z,11.18
2023-04-10T17:20:10.098Z,11.10
2023-04-10T17:22:40.155Z,11.01
2023-04-10T17:25:09.612Z,10.94
2023-04-10T17:27:40.301Z,10.89
2023-04-10T17:30:13.540Z,10.82
2023-04-10T17:32:41.983Z,10.73
2023-04-10T17:35:10.539Z,10.64
2023-04-10T17:37:38.785Z,10.56
2023-04-10T17:40:07.996Z,10.46
2023-04-10T17:42:36.338Z,10.37
2023-04-10T17:45:05.328Z,10.31
2023-04-10T17:47:36.075Z,10.24
2023-04-10T17:50:05.048Z,10.14
2023-04-10T17:52:33.564Z,10.05
2023-04-10T17:55:02.672Z,9.98
2023-04-10T17:57:30.873Z,9.93
2023-04-10T17:59:59.139Z,9.90
2023-04-10T18:02:29.539Z,9.89
2023-04-10T18:04:57.901Z,9.87
2023-04-10T18:07:26.206Z,9.84
2023-04-10T18:09:54.545Z,9.81
2023-04-10T18:12:22.937Z,9.79
2023-04-10T18:14:52.421Z,9.80
2023-04-10T18:17:20.668Z,9.79
2023-04-10T18:19:51.335Z,9.80
2023-04-10T18:22:19.548Z,9.80
2023-04-10T18:24:49.777Z,9.80
2023-04-10T18:27:17.925Z,9.81
2023-04-10T18:29:46.365Z,9.83
2023-04-10T18:32:14.496Z,9.85
2023-04-10T18:34:42.705Z,9.87
2023-04-10T18:37:11.012Z,9.86
2023-04-10T18:39:39.382Z,9.88
2023-04-10T18:42:11.035Z,9.90
2023-04-10T18:44:39.684Z,9.90
2023-04-10T18:47:08.027Z,9.90
2023-04-10T18:49:36.454Z,9.89
2023-04-10T18:52:04.718Z,9.88
2023-04-10T18:54:35.014Z,9.87
2023-04-10T18:57:03.370Z,9.85
2023-04-10T18:59:32.731Z,9.83
2023-04-10T19:02:01.230Z,9.83
2023-04-10T19:04:29.656Z,9.82
2023-04-10T19:06:57.904Z,9.81
2023-04-10T19:09:26.386Z,9.80
2023-04-10T19:11:55.939Z,9.78
2023-04-10T19:14:24.210Z,9.75
2023-04-10T19:16:52.536Z,9.72
2023-04-10T19:19:20.797Z,9.69
2023-04-10T19:21:48.840Z,9.66
2023-04-10T19:24:16.983Z,9.62
2023-04-10T19:26:44.947Z,9.57
2023-04-10T19:29:13.633Z,9.52
2023-04-10T19:31:44.545Z,9.46
2023-04-10T19:34:12.894Z,9.40
2023-04-10T19:36:42.004Z,9.35
2023-04-10T19:39:09.991Z,9.30
2023-04-10T19:41:42.396Z,9.24
2023-04-10T19:44:10.868Z,9.17
2023-04-10T19:46:39.863Z,9.10
2023-04-10T19:49:08.212Z,9.03
2023-04-10T19:51:36.158Z,8.97
2023-04-10T19:54:04.181Z,8.90
2023-04-10T19:56:32.938Z,8.86
2023-04-10T19:59:01.135Z,8.82
2023-04-10T20:01:29.450Z,8.79
2023-04-10T20:03:57.808Z,8.77
2023-04-10T20:06:27.906Z,8.75
2023-04-10T20:08:56.096Z,8.75
2023-04-10T20:11:30.581Z,8.75
2023-04-10T20:13:59.550Z,8.76
2023-04-10T20:16:27.562Z,8.76
2023-04-10T20:18:56.183Z,8.77
2023-04-10T20:21:24.568Z,8.77
2023-04-10T20:23:52.534Z,8.78
2023-04-10T20:26:20.393Z,8.79
2023-04-10T20:28:48.361Z,8.79
2023-04-10T20:31:16.350Z,8.79
2023-04-10T20:33:44.472Z,8.78
2023-04-10T20:36:13.569Z,8.78
2023-04-10T20:38:41.655Z,8.79
2023-04-10T20:41:09.648Z,8.80
2023-04-10T20:43:37.558Z,8.82
2023-04-10T20:46:09.190Z,8.85
2023-04-10T20:48:39.005Z,8.88
2023-04-10T20:51:07.405Z,8.92
2023-04-10T20:53:35.360Z,8.92
2023-04-10T20:56:06.044Z,8.92
2023-04-10T20:58:34.709Z,8.92
2023-04-10T21:01:02.823Z,8.92
2023-04-10T21:03:32.540Z,8.90
2023-04-10T21:06:05.456Z,8.89
2023-04-10T21:08:33.511Z,8.86
2023-04-10T21:11:01.501Z,8.83
2023-04-10T21:13:29.426Z,8.80
2023-04-10T21:15:57.395Z,8.76
2023-04-10T21:18:25.377Z,8.71
2023-04-10T21:20:53.273Z,8.66
2023-04-10T21:23:21.185Z,8.63
2023-04-10T21:25:53.287Z,8.60
2023-04-10T21:28:21.452Z,8.56
2023-04-10T21:30:49.805Z,8.50
2023-04-10T21:33:17.732Z,8.47
2023-04-10T21:35:46.203Z,8.45
2023-04-10T21:38:14.100Z,8.42
2023-04-10T21:40:42.160Z,8.38
2023-04-10T21:43:10.060Z,8.36
2023-04-10T21:45:38.610Z,8.32
2023-04-10T21:48:06.612Z,8.29
2023-04-10T21:50:34.613Z,8.24
2023-04-10T21:53:02.867Z,8.21
2023-04-10T21:55:30.822Z,8.18
2023-04-10T21:57:58.740Z,8.15
2023-04-10T22:00:26.995Z,8.12
2023-04-10T22:02:55.072Z,8.10
2023-04-10T22:05:24.711Z,8.05
2023-04-10T22:07:53.089Z,7.98
2023-04-10T22:10:21.136Z,7.94
2023-04-10T22:12:49.511Z,7.88
2023-04-10T22:15:17.739Z,7.83
2023-04-10T22:17:45.761Z,7.79
2023-04-10T22:20:13.985Z,7.72
2023-04-10T22:22:41.895Z,7.65
2023-04-10T22:25:09.882Z,7.57
2023-04-10T22:27:37.849Z,7.51
2023-04-10T22:30:07.357Z,7.44
2023-04-10T22:32:35.380Z,7.36
2023-04-10T22:35:03.718Z,7.31
2023-04-10T22:37:31.671Z,7.30
2023-04-10T22:40:02.605Z,7.27
2023-04-10T22:42:32.019Z,7.24
2023-04-10T22:45:00.231Z,7.23
2023-04-10T22:47:28.140Z,7.25
2023-04-10T22:49:56.035Z,7.25
2023-04-10T22:52:24.156Z,7.24
2023-04-10T22:54:52.031Z,7.24
2023-04-10T22:57:19.984Z,7.24
2023-04-10T22:59:47.882Z,7.22
2023-04-10T23:02:15.943Z,7.19
2023-04-10T23:04:44.105Z,7.15
2023-04-10T23:07:12.215Z,7.10
2023-04-10T23:09:40.153Z,7.05
2023-04-10T23:12:08.336Z,7.00
2023-04-10T23:14:36.247Z,6.97
2023-04-10T23:17:04.172Z,6.95
2023-04-10T23:19:32.086Z,6.91
2023-04-10T23:22:00.048Z,6.85
2023-04-10T23:24:28.003Z,6.85
2023-04-10T23:26:55.853Z,6.84
2023-04-10T23:29:23.744Z,6.82
2023-04-10T23:31:51.559Z,6.76
2023-04-10T23:34:21.664Z,6.76
2023-04-10T23:36:49.574Z,6.74
2023-04-10T23:39:17.474Z,6.70
2023-04-10T23:41:45.586Z,6.67
2023-04-10T23:44:13.501Z,6.66
2023-04-10T23:46:41.415Z,6.64
2023-04-10T23:49:09.514Z,6.64
2023-04-10T23:51:37.350Z,6.62
2023-04-10T23:54:05.747Z,6.60
2023-04-10T23:56:33.700Z,6.56
2023-04-10T23:59:01.617Z,6.51
